sensor_id;sensor_type;location;lat;lon;timestamp;P1;durP1;ratioP1;P2;durP2;ratioP2
23400;SDS011;11873;49.300;8.920;2022-12-08T00:01:51;11.43;;;8.50;;
23400;SDS011;11873;49.300;8.920;2022-12-08T00:06:52;12.07;;;8.33;;
23400;SDS011;11873;49.300;8.920;2022-12-08T00:11:56;11.03;;;7.63;;
23400;SDS011;11873;49.300;8.920;2022-12-08T00:16:57;9.20;;;6.80;;
23400;SDS011;11873;49.300;8.920;2022-12-08T00:21:57;10.33;;;7.53;;
23400;SDS011;11873;49.300;8.920;2022-12-08T00:26:58;10.23;;;7.07;;
23400;SDS011;11873;49.300;8.920;2022-12-08T00:31:58;8.90;;;7.20;;
23400;SDS011;11873;49.300;8.920;2022-12-08T00:36:58;9.87;;;6.90;;
23400;SDS011;11873;49.300;8.920;2022-12-08T00:41:59;9.60;;;6.80;;
23400;SDS011;11873;49.300;8.920;2022-12-08T00:46:59;8.20;;;6.77;;
23400;SDS011;11873;49.300;8.920;2022-12-08T00:51:59;10.10;;;7.37;;
23400;SDS011;11873;49.300;8.920;2022-12-08T00:56:59;10.17;;;7.07;;
23400;SDS011;11873;49.300;8.920;2022-12-08T01:01:59;8.30;;;6.77;;
23400;SDS011;11873;49.300;8.920;2022-12-08T01:06:59;9.80;;;6.50;;
23400;SDS011;11873;49.300;8.920;2022-12-08T01:12:00;9.67;;;6.07;;
23400;SDS011;11873;49.300;8.920;2022-12-08T01:17:00;6.90;;;6.20;;
23400;SDS011;11873;49.300;8.920;2022-12-08T01:22:00;9.80;;;6.27;;
23400;SDS011;11873;49.300;8.920;2022-12-08T01:27:00;9.53;;;7.20;;
23400;SDS011;11873;49.300;8.920;2022-12-08T01:32:01;9.37;;;7.37;;
23400;SDS011;11873;49.300;8.920;2022-12-08T01:37:01;8.35;;;6.35;;
23400;SDS011;11873;49.300;8.920;2022-12-08T01:42:01;9.67;;;7.27;;
23400;SDS011;11873;49.300;8.920;2022-12-08T01:47:01;9.10;;;6.87;;
23400;SDS011;11873;49.300;8.920;2022-12-08T01:52:24;8.13;;;6.60;;
23400;SDS011;11873;49.300;8.920;2022-12-08T01:57:23;9.80;;;6.67;;
23400;SDS011;11873;49.300;8.920;2022-12-08T02:02:25;7.50;;;6.30;;
23400;SDS011;11873;49.300;8.920;2022-12-08T02:07:28;13.67;;;7.13;;
23400;SDS011;11873;49.300;8.920;2022-12-08T02:12:29;8.77;;;6.87;;
23400;SDS011;11873;49.300;8.920;2022-12-08T02:17:44;8.20;;;6.23;;
23400;SDS011;11873;49.300;8.920;2022-12-08T02:43:45;8.17;;;6.10;;
23400;SDS011;11873;49.300;8.920;2022-12-08T02:48:46;8.20;;;5.47;;
23400;SDS011;11873;49.300;8.920;2022-12-08T02:53:46;6.63;;;5.57;;
23400;SDS011;11873;49.300;8.920;2022-12-08T03:04:11;6.47;;;4.93;;
23400;SDS011;11873;49.300;8.920;2022-12-08T03:09:28;5.87;;;5.27;;
23400;SDS011;11873;49.300;8.920;2022-12-08T03:14:30;7.60;;;5.37;;
23400;SDS011;11873;49.300;8.920;2022-12-08T03:19:36;7.40;;;5.77;;
23400;SDS011;11873;49.300;8.920;2022-12-08T03:24:38;6.03;;;4.70;;
23400;SDS011;11873;49.300;8.920;2022-12-08T03:29:39;5.70;;;4.70;;
23400;SDS011;11873;49.300;8.920;2022-12-08T03:34:40;9.50;;;5.70;;
23400;SDS011;11873;49.300;8.920;2022-12-08T03:39:41;6.70;;;5.40;;
23400;SDS011;11873;49.300;8.920;2022-12-08T03:44:41;7.20;;;4.90;;
23400;SDS011;11873;49.300;8.920;2022-12-08T03:49:41;6.77;;;5.57;;
23400;SDS011;11873;49.300;8.920;2022-12-08T03:54:41;7.53;;;5.03;;
23400;SDS011;11873;49.300;8.920;2022-12-08T03:59:41;6.57;;;5.10;;
23400;SDS011;11873;49.300;8.920;2022-12-08T04:04:42;8.13;;;5.77;;
23400;SDS011;11873;49.300;8.920;2022-12-08T04:09:42;8.17;;;6.00;;
23400;SDS011;11873;49.300;8.920;2022-12-08T04:14:42;7.73;;;5.73;;
23400;SDS011;11873;49.300;8.920;2022-12-08T04:19:43;8.13;;;5.77;;
23400;SDS011;11873;49.300;8.920;2022-12-08T04:24:43;6.80;;;4.93;;
23400;SDS011;11873;49.300;8.920;2022-12-08T04:29:43;6.07;;;5.00;;
23400;SDS011;11873;49.300;8.920;2022-12-08T04:34:43;8.07;;;4.73;;
23400;SDS011;11873;49.300;8.920;2022-12-08T04:39:43;6.70;;;4.80;;
23400;SDS011;11873;49.300;8.920;2022-12-08T04:44:44;6.67;;;4.87;;
23400;SDS011;11873;49.300;8.920;2022-12-08T04:49:44;6.77;;;5.00;;
23400;SDS011;11873;49.300;8.920;2022-12-08T04:54:44;7.23;;;5.57;;
23400;SDS011;11873;49.300;8.920;2022-12-08T04:59:44;7.23;;;5.70;;
23400;SDS011;11873;49.300;8.920;2022-12-08T05:04:44;8.47;;;5.40;;
23400;SDS011;11873;49.300;8.920;2022-12-08T05:09:44;6.70;;;5.37;;
23400;SDS011;11873;49.300;8.920;2022-12-08T05:14:47;8.07;;;5.77;;
23400;SDS011;11873;49.300;8.920;2022-12-08T05:19:48;8.50;;;5.93;;
23400;SDS011;11873;49.300;8.920;2022-12-08T05:24:48;7.40;;;5.67;;
23400;SDS011;11873;49.300;8.920;2022-12-08T05:29:48;6.73;;;5.30;;
23400;SDS011;11873;49.300;8.920;2022-12-08T05:34:48;7.57;;;5.93;;
23400;SDS011;11873;49.300;8.920;2022-12-08T05:39:48;7.47;;;6.20;;
23400;SDS011;11873;49.300;8.920;2022-12-08T05:44:49;8.63;;;6.17;;
23400;SDS011;11873;49.300;8.920;2022-12-08T05:49:49;8.60;;;6.30;;
23400;SDS011;11873;49.300;8.920;2022-12-08T05:54:49;8.40;;;6.17;;
23400;SDS011;11873;49.300;8.920;2022-12-08T05:59:49;8.93;;;6.73;;
23400;SDS011;11873;49.300;8.920;2022-12-08T06:04:49;13.03;;;7.73;;
23400;SDS011;11873;49.300;8.920;2022-12-08T06:09:50;9.47;;;6.17;;
23400;SDS011;11873;49.300;8.920;2022-12-08T06:14:50;9.07;;;6.27;;
23400;SDS011;11873;49.300;8.920;2022-12-08T06:19:50;9.53;;;6.37;;
23400;SDS011;11873;49.300;8.920;2022-12-08T06:24:50;9.17;;;6.77;;
23400;SDS011;11873;49.300;8.920;2022-12-08T06:29:50;8.27;;;6.13;;
23400;SDS011;11873;49.300;8.920;2022-12-08T06:34:51;7.83;;;6.53;;
23400;SDS011;11873;49.300;8.920;2022-12-08T06:39:51;10.57;;;7.37;;
23400;SDS011;11873;49.300;8.920;2022-12-08T06:44:51;8.60;;;6.47;;
23400;SDS011;11873;49.300;8.920;2022-12-08T06:49:51;8.23;;;6.83;;
23400;SDS011;11873;49.300;8.920;2022-12-08T06:54:52;9.13;;;7.03;;
23400;SDS011;11873;49.300;8.920;2022-12-08T06:59:52;9.00;;;6.23;;
23400;SDS011;11873;49.300;8.920;2022-12-08T07:04:52;6.97;;;5.23;;
23400;SDS011;11873;49.300;8.920;2022-12-08T07:09:52;8.27;;;6.17;;
23400;SDS011;11873;49.300;8.920;2022-12-08T07:14:52;11.77;;;7.23;;
23400;SDS011;11873;49.300;8.920;2022-12-08T07:19:53;10.57;;;7.73;;
23400;SDS011;11873;49.300;8.920;2022-12-08T07:24:53;7.27;;;6.47;;
23400;SDS011;11873;49.300;8.920;2022-12-08T07:29:53;10.80;;;8.30;;
23400;SDS011;11873;49.300;8.920;2022-12-08T07:34:53;8.77;;;7.30;;
23400;SDS011;11873;49.300;8.920;2022-12-08T07:39:53;8.90;;;7.17;;
23400;SDS011;11873;49.300;8.920;2022-12-08T07:44:54;9.40;;;6.83;;
23400;SDS011;11873;49.300;8.920;2022-12-08T07:49:54;11.57;;;8.20;;
23400;SDS011;11873;49.300;8.920;2022-12-08T07:54:54;9.53;;;6.77;;
23400;SDS011;11873;49.300;8.920;2022-12-08T07:59:54;8.63;;;7.47;;
23400;SDS011;11873;49.300;8.920;2022-12-08T08:04:54;8.63;;;7.07;;
23400;SDS011;11873;49.300;8.920;2022-12-08T08:09:55;11.30;;;8.03;;
23400;SDS011;11873;49.300;8.920;2022-12-08T08:14:55;12.13;;;7.90;;
23400;SDS011;11873;49.300;8.920;2022-12-08T08:19:55;10.97;;;8.37;;
23400;SDS011;11873;49.300;8.920;2022-12-08T08:24:55;9.57;;;7.85;;
23400;SDS011;11873;49.300;8.920;2022-12-08T08:29:55;10.30;;;8.20;;
23400;SDS011;11873;49.300;8.920;2022-12-08T08:34:58;11.20;;;8.60;;
23400;SDS011;11873;49.300;8.920;2022-12-08T08:39:58;9.73;;;8.03;;
23400;SDS011;11873;49.300;8.920;2022-12-08T08:44:59;11.07;;;7.17;;
23400;SDS011;11873;49.300;8.920;2022-12-08T08:49:59;10.93;;;8.17;;
23400;SDS011;11873;49.300;8.920;2022-12-08T08:54:59;10.77;;;7.43;;
23400;SDS011;11873;49.300;8.920;2022-12-08T08:59:59;7.57;;;6.73;;
23400;SDS011;11873;49.300;8.920;2022-12-08T09:04:59;9.03;;;7.57;;
23400;SDS011;11873;49.300;8.920;2022-12-08T09:09:59;8.73;;;7.00;;
23400;SDS011;11873;49.300;8.920;2022-12-08T09:15:00;8.77;;;6.80;;
23400;SDS011;11873;49.300;8.920;2022-12-08T09:20:00;8.30;;;7.23;;
23400;SDS011;11873;49.300;8.920;2022-12-08T09:25:00;9.60;;;8.03;;
23400;SDS011;11873;49.300;8.920;2022-12-08T09:30:00;11.13;;;7.90;;
23400;SDS011;11873;49.300;8.920;2022-12-08T09:35:01;9.20;;;7.13;;
23400;SDS011;11873;49.300;8.920;2022-12-08T09:40:01;11.17;;;8.03;;
23400;SDS011;11873;49.300;8.920;2022-12-08T09:45:03;10.47;;;8.00;;
23400;SDS011;11873;49.300;8.920;2022-12-08T09:50:06;10.00;;;7.13;;
23400;SDS011;11873;49.300;8.920;2022-12-08T09:55:14;12.33;;;7.53;;
23400;SDS011;11873;49.300;8.920;2022-12-08T10:00:16;8.37;;;7.20;;
23400;SDS011;11873;49.300;8.920;2022-12-08T10:05:16;9.17;;;7.00;;
23400;SDS011;11873;49.300;8.920;2022-12-08T10:20:34;10.37;;;7.73;;
23400;SDS011;11873;49.300;8.920;2022-12-08T10:25:40;8.80;;;6.93;;
23400;SDS011;11873;49.300;8.920;2022-12-08T10:30:43;10.37;;;6.53;;
23400;SDS011;11873;49.300;8.920;2022-12-08T10:40:43;10.30;;;6.97;;
23400;SDS011;11873;49.300;8.920;2022-12-08T10:45:44;8.00;;;6.97;;
23400;SDS011;11873;49.300;8.920;2022-12-08T10:50:54;9.60;;;7.13;;
23400;SDS011;11873;49.300;8.920;2022-12-08T11:01:15;6.60;;;5.27;;
23400;SDS011;11873;49.300;8.920;2022-12-08T11:06:24;8.23;;;6.73;;
23400;SDS011;11873;49.300;8.920;2022-12-08T11:11:43;7.60;;;6.67;;
23400;SDS011;11873;49.300;8.920;2022-12-08T11:16:44;10.37;;;7.73;;
23400;SDS011;11873;49.300;8.920;2022-12-08T11:21:44;8.30;;;7.00;;
23400;SDS011;11873;49.300;8.920;2022-12-08T11:26:58;7.03;;;6.33;;
23400;SDS011;11873;49.300;8.920;2022-12-08T11:32:00;7.43;;;6.07;;
23400;SDS011;11873;49.300;8.920;2022-12-08T11:37:03;9.47;;;6.57;;
23400;SDS011;11873;49.300;8.920;2022-12-08T11:42:03;10.77;;;7.40;;
23400;SDS011;11873;49.300;8.920;2022-12-08T11:47:12;8.50;;;6.13;;
23400;SDS011;11873;49.300;8.920;2022-12-08T11:52:20;8.83;;;6.40;;
23400;SDS011;11873;49.300;8.920;2022-12-08T11:57:23;7.87;;;5.93;;
23400;SDS011;11873;49.300;8.920;2022-12-08T12:02:26;7.03;;;5.57;;
23400;SDS011;11873;49.300;8.920;2022-12-08T12:07:33;7.60;;;6.43;;
23400;SDS011;11873;49.300;8.920;2022-12-08T12:12:57;7.00;;;6.13;;
23400;SDS011;11873;49.300;8.920;2022-12-08T12:23:00;8.40;;;5.93;;
23400;SDS011;11873;49.300;8.920;2022-12-08T12:28:02;8.33;;;6.67;;
23400;SDS011;11873;49.300;8.920;2022-12-08T12:33:04;12.30;;;7.37;;
23400;SDS011;11873;49.300;8.920;2022-12-08T12:38:17;7.07;;;6.30;;
23400;SDS011;11873;49.300;8.920;2022-12-08T12:43:23;6.90;;;6.20;;
23400;SDS011;11873;49.300;8.920;2022-12-08T12:48:26;5.93;;;4.73;;
23400;SDS011;11873;49.300;8.920;2022-12-08T13:03:27;6.53;;;5.60;;
23400;SDS011;11873;49.300;8.920;2022-12-08T13:08:27;10.60;;;6.67;;
23400;SDS011;11873;49.300;8.920;2022-12-08T13:13:27;8.00;;;6.03;;
23400;SDS011;11873;49.300;8.920;2022-12-08T13:18:30;7.57;;;5.53;;
23400;SDS011;11873;49.300;8.920;2022-12-08T13:33:55;6.80;;;5.43;;
23400;SDS011;11873;49.300;8.920;2022-12-08T13:38:55;7.07;;;5.20;;
23400;SDS011;11873;49.300;8.920;2022-12-08T13:44:04;6.93;;;4.30;;
23400;SDS011;11873;49.300;8.920;2022-12-08T13:49:05;4.73;;;3.97;;
23400;SDS011;11873;49.300;8.920;2022-12-08T13:54:08;5.70;;;5.10;;
23400;SDS011;11873;49.300;8.920;2022-12-08T13:59:22;5.23;;;4.23;;
23400;SDS011;11873;49.300;8.920;2022-12-08T14:04:23;7.63;;;5.03;;
23400;SDS011;11873;49.300;8.920;2022-12-08T14:09:25;5.70;;;4.90;;
23400;SDS011;11873;49.300;8.920;2022-12-08T14:14:30;6.50;;;5.50;;
23400;SDS011;11873;49.300;8.920;2022-12-08T14:19:32;6.43;;;5.07;;
23400;SDS011;11873;49.300;8.920;2022-12-08T14:24:33;6.80;;;4.93;;
23400;SDS011;11873;49.300;8.920;2022-12-08T14:29:43;10.63;;;6.00;;
23400;SDS011;11873;49.300;8.920;2022-12-08T14:34:44;6.53;;;4.80;;
23400;SDS011;11873;49.300;8.920;2022-12-08T14:39:44;9.57;;;5.00;;
23400;SDS011;11873;49.300;8.920;2022-12-08T14:44:45;6.70;;;5.40;;
23400;SDS011;11873;49.300;8.920;2022-12-08T14:49:45;7.53;;;5.53;;
23400;SDS011;11873;49.300;8.920;2022-12-08T14:54:47;7.87;;;6.03;;
23400;SDS011;11873;49.300;8.920;2022-12-08T14:59:48;7.23;;;5.83;;
23400;SDS011;11873;49.300;8.920;2022-12-08T15:04:52;6.97;;;5.60;;
23400;SDS011;11873;49.300;8.920;2022-12-08T15:10:38;8.13;;;6.27;;
23400;SDS011;11873;49.300;8.920;2022-12-08T15:15:14;7.10;;;5.60;;
23400;SDS011;11873;49.300;8.920;2022-12-08T15:25:24;6.77;;;5.17;;
23400;SDS011;11873;49.300;8.920;2022-12-08T15:30:24;11.93;;;8.13;;
23400;SDS011;11873;49.300;8.920;2022-12-08T15:35:24;8.00;;;6.50;;
23400;SDS011;11873;49.300;8.920;2022-12-08T15:40:24;8.03;;;6.30;;
23400;SDS011;11873;49.300;8.920;2022-12-08T15:45:27;10.60;;;6.47;;
23400;SDS011;11873;49.300;8.920;2022-12-08T15:50:29;10.13;;;6.07;;
23400;SDS011;11873;49.300;8.920;2022-12-08T15:55:29;9.20;;;6.72;;
23400;SDS011;11873;49.300;8.920;2022-12-08T16:00:30;8.27;;;6.53;;
23400;SDS011;11873;49.300;8.920;2022-12-08T16:05:31;6.97;;;6.30;;
23400;SDS011;11873;49.300;8.920;2022-12-08T16:10:31;8.27;;;6.70;;
23400;SDS011;11873;49.300;8.920;2022-12-08T16:15:35;7.83;;;6.43;;
23400;SDS011;11873;49.300;8.920;2022-12-08T16:20:35;9.63;;;6.77;;
23400;SDS011;11873;49.300;8.920;2022-12-08T16:25:35;10.03;;;7.43;;
23400;SDS011;11873;49.300;8.920;2022-12-08T16:30:36;9.03;;;7.27;;
23400;SDS011;11873;49.300;8.920;2022-12-08T16:35:36;16.40;;;12.83;;
23400;SDS011;11873;49.300;8.920;2022-12-08T16:40:36;12.87;;;10.40;;
23400;SDS011;11873;49.300;8.920;2022-12-08T16:45:36;11.50;;;10.30;;
23400;SDS011;11873;49.300;8.920;2022-12-08T16:50:42;13.80;;;10.77;;
23400;SDS011;11873;49.300;8.920;2022-12-08T16:55:46;11.80;;;10.20;;
23400;SDS011;11873;49.300;8.920;2022-12-08T17:00:47;12.93;;;9.23;;
23400;SDS011;11873;49.300;8.920;2022-12-08T17:05:47;11.87;;;8.70;;
23400;SDS011;11873;49.300;8.920;2022-12-08T17:10:47;9.80;;;7.70;;
23400;SDS011;11873;49.300;8.920;2022-12-08T17:15:47;12.73;;;8.07;;
23400;SDS011;11873;49.300;8.920;2022-12-08T17:20:47;10.83;;;6.80;;
23400;SDS011;11873;49.300;8.920;2022-12-08T17:25:58;10.77;;;7.93;;
23400;SDS011;11873;49.300;8.920;2022-12-08T17:30:58;8.20;;;6.40;;
23400;SDS011;11873;49.300;8.920;2022-12-08T17:35:59;8.23;;;6.57;;
23400;SDS011;11873;49.300;8.920;2022-12-08T17:41:02;9.80;;;7.20;;
23400;SDS011;11873;49.300;8.920;2022-12-08T17:46:03;10.23;;;7.47;;
23400;SDS011;11873;49.300;8.920;2022-12-08T17:51:05;9.13;;;7.40;;
23400;SDS011;11873;49.300;8.920;2022-12-08T17:56:14;10.33;;;8.30;;
23400;SDS011;11873;49.300;8.920;2022-12-08T18:01:15;10.73;;;7.77;;
23400;SDS011;11873;49.300;8.920;2022-12-08T18:06:15;12.23;;;8.77;;
23400;SDS011;11873;49.300;8.920;2022-12-08T18:11:16;10.03;;;7.70;;
23400;SDS011;11873;49.300;8.920;2022-12-08T18:16:17;8.53;;;6.90;;
23400;SDS011;11873;49.300;8.920;2022-12-08T18:21:18;9.30;;;8.17;;
23400;SDS011;11873;49.300;8.920;2022-12-08T18:26:18;9.33;;;7.03;;
23400;SDS011;11873;49.300;8.920;2022-12-08T18:31:19;8.47;;;6.77;;
23400;SDS011;11873;49.300;8.920;2022-12-08T18:36:21;9.80;;;7.50;;
23400;SDS011;11873;49.300;8.920;2022-12-08T18:41:22;9.23;;;6.80;;
23400;SDS011;11873;49.300;8.920;2022-12-08T18:46:23;7.30;;;5.90;;
23400;SDS011;11873;49.300;8.920;2022-12-08T18:51:23;8.27;;;6.63;;
23400;SDS011;11873;49.300;8.920;2022-12-08T18:56:25;12.20;;;9.10;;
23400;SDS011;11873;49.300;8.920;2022-12-08T19:01:25;13.43;;;10.30;;
23400;SDS011;11873;49.300;8.920;2022-12-08T19:06:25;16.73;;;10.80;;
23400;SDS011;11873;49.300;8.920;2022-12-08T19:11:26;13.40;;;10.43;;
23400;SDS011;11873;49.300;8.920;2022-12-08T19:16:27;13.83;;;10.33;;
23400;SDS011;11873;49.300;8.920;2022-12-08T19:21:27;10.03;;;7.70;;
23400;SDS011;11873;49.300;8.920;2022-12-08T19:26:27;10.77;;;6.87;;
23400;SDS011;11873;49.300;8.920;2022-12-08T19:31:28;10.27;;;7.17;;
23400;SDS011;11873;49.300;8.920;2022-12-08T19:36:28;9.50;;;7.03;;
23400;SDS011;11873;49.300;8.920;2022-12-08T19:41:28;9.47;;;7.37;;
23400;SDS011;11873;49.300;8.920;2022-12-08T19:46:28;9.77;;;7.90;;
23400;SDS011;11873;49.300;8.920;2022-12-08T19:51:28;13.30;;;9.20;;
23400;SDS011;11873;49.300;8.920;2022-12-08T19:56:29;15.60;;;9.83;;
23400;SDS011;11873;49.300;8.920;2022-12-08T20:01:29;12.53;;;9.63;;
23400;SDS011;11873;49.300;8.920;2022-12-08T20:06:29;14.30;;;9.43;;
23400;SDS011;11873;49.300;8.920;2022-12-08T20:11:29;11.30;;;8.23;;
23400;SDS011;11873;49.300;8.920;2022-12-08T20:16:30;12.63;;;9.07;;
23400;SDS011;11873;49.300;8.920;2022-12-08T20:21:30;10.80;;;8.10;;
23400;SDS011;11873;49.300;8.920;2022-12-08T20:26:30;11.47;;;7.60;;
23400;SDS011;11873;49.300;8.920;2022-12-08T20:31:30;8.70;;;7.80;;
23400;SDS011;11873;49.300;8.920;2022-12-08T20:36:30;10.23;;;8.07;;
23400;SDS011;11873;49.300;8.920;2022-12-08T20:41:31;10.57;;;7.97;;
23400;SDS011;11873;49.300;8.920;2022-12-08T20:46:31;8.80;;;7.43;;
23400;SDS011;11873;49.300;8.920;2022-12-08T20:51:31;11.77;;;8.10;;
23400;SDS011;11873;49.300;8.920;2022-12-08T20:56:32;9.57;;;7.13;;
23400;SDS011;11873;49.300;8.920;2022-12-08T21:01:32;8.50;;;6.70;;
23400;SDS011;11873;49.300;8.920;2022-12-08T21:06:32;8.87;;;7.70;;
23400;SDS011;11873;49.300;8.920;2022-12-08T21:11:33;12.23;;;8.77;;
23400;SDS011;11873;49.300;8.920;2022-12-08T21:16:33;9.53;;;7.13;;
23400;SDS011;11873;49.300;8.920;2022-12-08T21:21:33;10.13;;;7.60;;
23400;SDS011;11873;49.300;8.920;2022-12-08T21:26:34;9.83;;;8.00;;
23400;SDS011;11873;49.300;8.920;2022-12-08T21:31:34;9.63;;;7.93;;
23400;SDS011;11873;49.300;8.920;2022-12-08T21:36:34;10.03;;;8.20;;
23400;SDS011;11873;49.300;8.920;2022-12-08T21:41:34;12.50;;;7.93;;
23400;SDS011;11873;49.300;8.920;2022-12-08T21:46:34;13.07;;;9.67;;
23400;SDS011;11873;49.300;8.920;2022-12-08T21:51:35;11.83;;;9.03;;
23400;SDS011;11873;49.300;8.920;2022-12-08T21:56:35;12.87;;;9.60;;
23400;SDS011;11873;49.300;8.920;2022-12-08T22:01:35;12.00;;;9.43;;
23400;SDS011;11873;49.300;8.920;2022-12-08T22:06:35;13.53;;;9.93;;
23400;SDS011;11873;49.300;8.920;2022-12-08T22:11:36;12.57;;;9.40;;
23400;SDS011;11873;49.300;8.920;2022-12-08T22:16:36;11.13;;;8.93;;
23400;SDS011;11873;49.300;8.920;2022-12-08T22:21:36;14.03;;;10.43;;
23400;SDS011;11873;49.300;8.920;2022-12-08T22:26:36;10.97;;;8.20;;
23400;SDS011;11873;49.300;8.920;2022-12-08T22:31:37;11.50;;;8.37;;
23400;SDS011;11873;49.300;8.920;2022-12-08T22:36:37;11.00;;;7.60;;
23400;SDS011;11873;49.300;8.920;2022-12-08T22:41:37;11.37;;;8.23;;
23400;SDS011;11873;49.300;8.920;2022-12-08T22:46:37;10.13;;;8.10;;
23400;SDS011;11873;49.300;8.920;2022-12-08T22:51:37;11.73;;;8.83;;
23400;SDS011;11873;49.300;8.920;2022-12-08T22:56:37;12.10;;;9.30;;
23400;SDS011;11873;49.300;8.920;2022-12-08T23:01:38;12.47;;;9.17;;
23400;SDS011;11873;49.300;8.920;2022-12-08T23:06:38;11.93;;;9.77;;
23400;SDS011;11873;49.300;8.920;2022-12-08T23:11:38;12.90;;;9.00;;
23400;SDS011;11873;49.300;8.920;2022-12-08T23:16:38;9.60;;;7.77;;
23400;SDS011;11873;49.300;8.920;2022-12-08T23:21:38;11.10;;;8.20;;
23400;SDS011;11873;49.300;8.920;2022-12-08T23:26:38;11.40;;;7.80;;
23400;SDS011;11873;49.300;8.920;2022-12-08T23:31:39;10.13;;;7.80;;
23400;SDS011;11873;49.300;8.920;2022-12-08T23:36:39;11.63;;;8.20;;
23400;SDS011;11873;49.300;8.920;2022-12-08T23:41:39;10.83;;;8.47;;
23400;SDS011;11873;49.300;8.920;2022-12-08T23:46:39;11.37;;;8.50;;
23400;SDS011;11873;49.300;8.920;2022-12-08T23:51:39;11.60;;;8.97;;
23400;SDS011;11873;49.300;8.920;2022-12-08T23:56:40;11.97;;;8.83;;
